Terminal Aerodrome Forecast
Issued by NWS

Home | Current Version | Previous Version | Text Only | Print | Product List | Glossary On
Versions: 1 2 3 4 5 6 7 8 9 10 11 12 13 14 15 16 17 18 19 20 21 22 23 24 25 26 27 28 29 30 31 32 33 34 35 36 37 38 39 40 41 42 43 44 45
000
FTUS41 KGYX 280527
TAFMHT
TAF
KMHT 280527Z 2806/2906 32012G20KT 3SM -SN BLSN SCT025 OVC045
     FM280700 32014G20KT 5SM -SHSN BLSN BR OVC025
     FM280900 33010G18KT P6SM BKN025 OVC040
     FM281300 33009KT P6SM -SHSN BKN040 OVC080
     FM281600 33009KT P6SM SCT050 BKN080=

USA.gov is the U.S. government's official web portal to all federal, state and local government web resources and services.